Time;durP1;ratioP1;P1;durP2;ratioP2;P2;SDS_P1;SDS_P2;PMS_P1;PMS_P2;Temp;Humidity;BMP_temperature;BMP_pressure;BME280_temperature;BME280_humidity;BME280_pressure;Samples;Min_cycle;Max_cycle;Signal;HPM_P1;HPM_P2
2022/01/23 00:01:48;;;;;;;9.82;4.50;;;-3.40;99.90;;;;;;5010185;28;20393;-88
2022/01/23 00:04:17;;;;;;;8.60;4.57;;;-3.50;99.90;;;;;;4990155;28;20410;-88
2022/01/23 00:06:46;;;;;;;8.25;4.35;;;-3.50;99.90;;;;;;4974993;28;20412;-87
2022/01/23 00:09:16;;;;;;;7.55;4.53;;;-3.40;99.90;;;;;;4991051;28;20984;-88
2022/01/23 00:11:51;;;;;;;9.30;4.78;;;-3.40;99.90;;;;;;5023938;28;20429;-89
2022/01/23 00:17:23;;;;;;;7.75;4.65;;;-3.40;99.90;;;;;;4990906;28;20946;-89
2022/01/23 00:19:53;;;;;;;10.35;4.78;;;-3.40;99.90;;;;;;4991171;28;20411;-88
2022/01/23 00:22:27;;;;;;;7.80;4.47;;;-3.50;99.90;;;;;;4990976;28;20750;-88
2022/01/23 00:30:29;;;;;;;8.63;4.75;;;-3.40;99.90;;;;;;4990847;28;20419;-88
2022/01/23 00:33:00;;;;;;;8.40;4.82;;;-3.40;99.90;;;;;;4990890;28;20837;-88
2022/01/23 00:35:28;;;;;;;8.10;4.68;;;-3.40;99.90;;;;;;4991222;28;20399;-88
2022/01/23 00:37:58;;;;;;;8.63;4.63;;;-3.50;99.90;;;;;;4990766;28;20393;-88
2022/01/23 00:40:27;;;;;;;9.85;4.32;;;-3.50;99.90;;;;;;4990675;28;20403;-89
2022/01/23 00:42:56;;;;;;;10.88;5.05;;;-3.50;99.90;;;;;;5023791;28;20510;-88
2022/01/23 00:45:31;;;;;;;9.10;4.80;;;-3.50;99.90;;;;;;4990774;28;20827;-88
2022/01/23 00:48:04;;;;;;;7.57;4.43;;;-3.50;99.90;;;;;;4990620;28;20501;-88
2022/01/23 00:50:41;;;;;;;8.13;4.38;;;-3.50;99.90;;;;;;4990628;28;20409;-89
2022/01/23 00:53:11;;;;;;;8.38;4.68;;;-3.50;99.90;;;;;;4990889;28;20493;-88
2022/01/23 00:55:41;;;;;;;7.60;4.35;;;-3.50;99.90;;;;;;4990469;28;20404;-88
2022/01/23 00:58:09;;;;;;;8.25;4.70;;;-3.50;99.90;;;;;;4990625;28;20393;-89
2022/01/23 01:00:38;;;;;;;9.43;4.60;;;-3.50;99.90;;;;;;4990291;28;20484;-87
2022/01/23 01:03:07;;;;;;;8.35;4.88;;;-3.50;99.90;;;;;;5023190;28;20407;-88
2022/01/23 01:05:35;;;;;;;9.30;4.88;;;-3.50;99.90;;;;;;4991700;28;20450;-89
2022/01/23 01:08:05;;;;;;;8.50;4.50;;;-3.60;99.90;;;;;;4990497;28;20440;-88
2022/01/23 01:10:51;;;;;;;10.10;4.93;;;-3.60;99.90;;;;;;5006744;28;20405;-88
2022/01/23 01:13:21;;;;;;;8.52;4.68;;;-3.60;99.90;;;;;;5023248;28;20405;-87
2022/01/23 01:32:35;;;;;;;8.88;4.80;;;-3.50;99.90;;;;;;4990009;28;20752;-88
2022/01/23 01:35:15;;;;;;;8.35;4.50;;;-3.50;99.90;;;;;;4989684;28;20408;-87
2022/01/23 01:37:43;;;;;;;8.13;4.72;;;-3.60;99.90;;;;;;5015929;28;20494;-89
2022/01/23 01:40:11;;;;;;;9.37;4.87;;;-3.60;99.90;;;;;;5005975;28;20405;-89
2022/01/23 01:42:40;;;;;;;9.50;4.72;;;-3.50;99.90;;;;;;5008964;28;20392;-87
2022/01/23 01:45:08;;;;;;;8.65;4.50;;;-3.50;99.90;;;;;;5009261;28;20402;-87
2022/01/23 01:47:54;;;;;;;7.70;4.00;;;-3.60;99.90;;;;;;5009110;28;20399;-88
2022/01/23 01:50:23;;;;;;;9.15;4.55;;;-3.70;99.90;;;;;;4992926;28;20697;-88
2022/01/23 01:52:50;;;;;;;8.20;4.03;;;-3.60;99.90;;;;;;5025819;28;20410;-89
2022/01/23 01:55:30;;;;;;;9.32;4.82;;;-3.60;99.90;;;;;;5025559;28;20490;-88
2022/01/23 01:58:03;;;;;;;8.98;4.43;;;-3.60;99.90;;;;;;5042426;28;20908;-88
2022/01/23 02:00:55;;;;;;;7.15;3.72;;;-3.60;99.90;;;;;;5009517;28;20433;-88
2022/01/23 02:08:56;;;;;;;9.00;4.72;;;-3.60;99.90;;;;;;5008831;28;20407;-89
2022/01/23 02:14:30;;;;;;;7.75;4.28;;;-3.50;99.90;;;;;;5008820;28;20414;-89
2022/01/23 02:50:54;;;;;;;8.30;4.73;;;-3.70;99.90;;;;;;5008462;28;20399;-88
2022/01/23 02:56:32;;;;;;;8.93;4.68;;;-3.60;99.90;;;;;;5008339;28;20396;-88
2022/01/23 02:59:12;;;;;;;9.57;4.57;;;-3.70;99.90;;;;;;5008152;28;20464;-87
2022/01/23 03:02:09;;;;;;;8.02;4.50;;;-3.70;99.90;;;;;;5008188;28;20735;-88
2022/01/23 03:04:59;;;;;;;9.73;4.90;;;-3.70;99.90;;;;;;5006188;28;20488;-88
2022/01/23 03:07:52;;;;;;;9.25;4.88;;;-3.70;99.90;;;;;;5041242;28;20402;-88
2022/01/23 03:10:27;;;;;;;9.00;5.03;;;-3.60;99.90;;;;;;5008264;28;20404;-88
2022/01/23 03:15:59;;;;;;;10.07;4.25;;;-3.60;99.90;;;;;;5040950;28;20392;-87
2022/01/23 03:24:11;;;;;;;7.78;4.35;;;-3.60;99.90;;;;;;5009517;28;20500;-88
2022/01/23 03:24:49;;;;;;;8.20;4.35;;;-3.60;99.90;;;;;;5008021;28;20392;-88
2022/01/23 03:32:34;;;;;;;10.18;5.25;;;-3.70;99.90;;;;;;4988321;28;20722;-87
2022/01/23 03:35:04;;;;;;;9.27;4.97;;;-3.60;99.90;;;;;;4999454;28;20435;-88
2022/01/23 03:37:32;;;;;;;9.25;4.75;;;-3.50;99.90;;;;;;4989586;28;20386;-87
2022/01/23 03:40:00;;;;;;;8.40;4.60;;;-3.50;99.90;;;;;;4992601;28;20963;-88
2022/01/23 03:42:29;;;;;;;10.02;4.80;;;-3.60;99.90;;;;;;4991660;28;20447;-88
2022/01/23 03:47:40;;;;;;;9.25;4.90;;;-3.50;99.90;;;;;;4991698;28;20432;-88
2022/01/23 03:50:12;;;;;;;9.30;4.68;;;-3.40;99.90;;;;;;4991860;28;20733;-88
2022/01/23 03:52:43;;;;;;;8.45;4.47;;;-3.50;99.90;;;;;;5007853;28;20403;-89
2022/01/23 03:55:11;;;;;;;10.02;4.82;;;-3.60;99.90;;;;;;5007927;28;20408;-89
2022/01/23 03:57:39;;;;;;;8.63;4.50;;;-3.50;99.90;;;;;;4991400;28;20960;-89
2022/01/23 04:00:07;;;;;;;9.88;4.82;;;-3.60;99.90;;;;;;4991326;28;20429;-88
2022/01/23 04:02:41;;;;;;;8.15;4.55;;;-3.70;99.90;;;;;;4992434;28;20446;-88
2022/01/23 04:05:18;;;;;;;8.63;4.63;;;-3.60;99.90;;;;;;5009040;28;20440;-88
2022/01/23 04:07:49;;;;;;;10.10;5.10;;;-3.60;99.90;;;;;;5007317;28;20934;-88
2022/01/23 04:10:20;;;;;;;9.60;4.87;;;-3.50;99.90;;;;;;4992542;28;20412;-89
2022/01/23 04:15:36;;;;;;;8.18;4.57;;;-3.50;99.90;;;;;;5023807;28;20550;-89
2022/01/23 04:21:16;;;;;;;9.00;4.32;;;-3.60;99.90;;;;;;4991123;28;20401;-89
2022/01/23 04:32:23;;;;;;;10.63;5.03;;;-3.50;99.90;;;;;;5023490;28;20408;-88
2022/01/23 04:35:04;;;;;;;8.52;4.53;;;-3.40;99.90;;;;;;4990994;28;20424;-87
2022/01/23 04:46:29;;;;;;;9.60;5.13;;;-3.30;99.90;;;;;;4990608;28;20405;-88
2022/01/23 04:59:48;;;;;;;8.90;4.78;;;-3.40;99.90;;;;;;5023287;28;20484;-88
2022/01/23 05:04:53;;;;;;;8.65;4.63;;;-3.50;99.90;;;;;;4991348;28;20469;-89
2022/01/23 05:07:44;;;;;;;8.60;4.55;;;-3.60;99.90;;;;;;5017847;28;20401;-89
2022/01/23 05:10:46;;;;;;;8.07;4.60;;;-3.50;99.90;;;;;;4968806;28;20421;-87
2022/01/23 05:13:39;;;;;;;8.60;4.90;;;-3.70;99.90;;;;;;5009947;28;20409;-88
2022/01/23 05:16:08;;;;;;;10.63;5.57;;;-3.60;99.90;;;;;;5010901;28;20411;-88
2022/01/23 05:18:36;;;;;;;9.88;4.72;;;-3.60;99.90;;;;;;4989979;28;20413;-88
2022/01/23 05:23:53;;;;;;;8.50;5.00;;;-3.60;99.90;;;;;;5022654;28;20397;-88
2022/01/23 05:26:21;;;;;;;8.32;4.75;;;-3.60;99.90;;;;;;5006832;28;20767;-88
2022/01/23 05:28:49;;;;;;;9.87;4.97;;;-3.50;99.90;;;;;;4990444;28;20479;-89
2022/01/23 05:31:17;;;;;;;9.47;5.03;;;-3.60;99.90;;;;;;4990105;28;20413;-90
2022/01/23 05:33:45;;;;;;;10.65;5.13;;;-3.50;99.90;;;;;;4974182;28;20887;-88
2022/01/23 05:36:13;;;;;;;11.32;5.22;;;-3.50;99.90;;;;;;4989940;28;20401;-88
2022/01/23 05:38:41;;;;;;;10.13;5.38;;;-3.50;99.90;;;;;;5006107;28;20409;-89
2022/01/23 05:41:10;;;;;;;10.37;4.97;;;-3.50;99.90;;;;;;5022552;28;20401;-89
2022/01/23 05:43:38;;;;;;;8.13;4.15;;;-3.50;99.90;;;;;;4989653;28;20405;-86
2022/01/23 05:46:06;;;;;;;9.35;4.78;;;-3.50;99.90;;;;;;4990867;28;20421;-88
2022/01/23 05:48:33;;;;;;;10.35;4.90;;;-3.50;99.90;;;;;;4989857;28;20464;-88
2022/01/23 05:51:19;;;;;;;8.45;4.68;;;-3.60;99.90;;;;;;5003958;28;20409;-89
2022/01/23 05:54:16;;;;;;;10.23;4.95;;;-3.60;99.90;;;;;;5029563;28;20881;-88
2022/01/23 05:57:07;;;;;;;10.35;5.20;;;-3.60;99.90;;;;;;5028519;28;20472;-89
2022/01/23 06:00:01;;;;;;;8.93;5.07;;;-3.60;99.90;;;;;;5007522;28;20435;-88
2022/01/23 06:02:30;;;;;;;7.90;4.57;;;-3.60;99.90;;;;;;5025169;28;20447;-89
2022/01/23 06:04:57;;;;;;;8.63;4.67;;;-3.60;99.90;;;;;;4992826;28;20419;-88
2022/01/23 06:07:38;;;;;;;8.68;4.72;;;-3.70;99.90;;;;;;5008353;28;20407;-88
2022/01/23 06:10:06;;;;;;;9.77;4.60;;;-3.70;99.90;;;;;;5008766;28;20746;-88
2022/01/23 06:12:34;;;;;;;8.75;4.88;;;-3.60;99.90;;;;;;5009164;28;20404;-88
2022/01/23 06:15:02;;;;;;;8.70;4.53;;;-3.60;99.90;;;;;;4992675;28;20395;-88
2022/01/23 06:17:30;;;;;;;8.55;4.57;;;-3.60;99.90;;;;;;5009035;28;20505;-88
2022/01/23 06:20:16;;;;;;;8.40;4.57;;;-3.70;99.90;;;;;;5009140;28;20479;-88
2022/01/23 06:23:24;;;;;;;9.27;4.97;;;-3.70;99.90;;;;;;4996529;28;20886;-89
2022/01/23 06:26:12;;;;;;;9.10;4.72;;;-3.70;99.90;;;;;;5008613;28;20415;-87
2022/01/23 06:29:17;;;;;;;9.43;5.07;;;-3.70;99.90;;;;;;5024122;28;20407;-88
2022/01/23 06:31:46;;;;;;;9.45;4.90;;;-3.60;99.90;;;;;;5031897;28;20500;-87
2022/01/23 06:34:18;;;;;;;8.13;4.40;;;-3.60;99.90;;;;;;5019629;28;20930;-87
2022/01/23 06:36:49;;;;;;;9.30;4.93;;;-3.60;99.90;;;;;;5010831;28;20424;-87
2022/01/23 06:39:17;;;;;;;9.63;4.72;;;-3.50;99.90;;;;;;4984565;28;20768;-87
2022/01/23 06:41:50;;;;;;;8.82;4.53;;;-3.40;99.90;;;;;;5022056;28;20392;-87
2022/01/23 06:44:41;;;;;;;8.13;4.28;;;-3.40;99.90;;;;;;5007867;28;20404;-87
2022/01/23 06:47:11;;;;;;;8.43;4.05;;;-3.50;99.90;;;;;;5008576;28;20388;-86
2022/01/23 06:49:41;;;;;;;8.50;4.40;;;-3.50;99.90;;;;;;5008493;28;20391;-88
2022/01/23 06:52:09;;;;;;;8.30;4.50;;;-3.60;99.90;;;;;;4992335;28;20426;-87
2022/01/23 06:54:43;;;;;;;7.45;4.25;;;-3.70;99.90;;;;;;5008496;28;20515;-88
2022/01/23 06:57:11;;;;;;;7.07;3.95;;;-3.70;99.90;;;;;;5008216;28;20761;-87
2022/01/23 06:59:39;;;;;;;8.40;4.28;;;-3.70;99.90;;;;;;4992346;28;20453;-88
2022/01/23 07:02:23;;;;;;;7.45;4.10;;;-3.80;99.90;;;;;;5008045;27;20395;-87
2022/01/23 07:05:11;;;;;;;7.53;4.00;;;-3.80;99.90;;;;;;5007758;28;20399;-87
2022/01/23 07:07:50;;;;;;;7.78;4.20;;;-3.80;99.90;;;;;;5008062;28;20387;-87
2022/01/23 07:10:53;;;;;;;7.55;4.10;;;-3.80;99.90;;;;;;4958783;28;20495;-87
2022/01/23 07:13:28;;;;;;;7.60;4.18;;;-3.80;99.90;;;;;;4985326;28;20543;-87
2022/01/23 07:16:13;;;;;;;6.63;3.53;;;-3.90;99.90;;;;;;5015774;28;20418;-88
2022/01/23 07:19:05;;;;;;;7.73;3.80;;;-3.90;99.90;;;;;;5019811;28;20449;-88
2022/01/23 07:21:39;;;;;;;6.20;3.60;;;-3.90;99.90;;;;;;5027197;28;20509;-88
2022/01/23 07:24:08;;;;;;;7.65;4.00;;;-4.00;99.90;;;;;;5028036;28;20403;-87
2022/01/23 07:26:36;;;;;;;7.22;3.78;;;-4.00;99.90;;;;;;5028202;28;20395;-88
2022/01/23 07:29:07;;;;;;;7.10;4.15;;;-4.00;99.90;;;;;;5011746;28;20399;-87
2022/01/23 07:34:08;;;;;;;8.48;4.28;;;-3.80;99.90;;;;;;5044170;28;20433;-88
2022/01/23 07:36:37;;;;;;;8.77;4.55;;;-3.70;99.90;;;;;;5011291;28;20398;-87
2022/01/23 07:39:43;;;;;;;7.40;3.80;;;-3.60;99.90;;;;;;5024013;28;20403;-88
2022/01/23 07:42:19;;;;;;;7.63;4.20;;;-3.60;99.90;;;;;;5028825;28;20488;-87
2022/01/23 07:44:59;;;;;;;6.50;3.83;;;-3.60;99.90;;;;;;5012305;28;20849;-89
2022/01/23 07:48:02;;;;;;;6.55;3.47;;;-3.60;99.90;;;;;;5011143;28;20576;-88
2022/01/23 07:50:33;;;;;;;6.63;3.72;;;-3.70;99.90;;;;;;5012469;28;20407;-88
2022/01/23 07:53:09;;;;;;;6.50;3.72;;;-3.70;99.90;;;;;;5028645;28;20486;-88
2022/01/23 07:55:56;;;;;;;6.47;3.58;;;-3.80;99.90;;;;;;4991316;28;20419;-89
2022/01/23 07:58:53;;;;;;;7.10;3.92;;;-3.70;99.90;;;;;;4966326;28;20400;-88
2022/01/23 08:01:27;;;;;;;8.13;4.33;;;-3.80;99.90;;;;;;5008672;28;20771;-88
2022/01/23 08:04:18;;;;;;;8.25;4.38;;;-3.70;99.90;;;;;;5027915;28;20393;-87
2022/01/23 08:06:54;;;;;;;9.17;4.83;;;-3.60;99.90;;;;;;4991308;28;20488;-89
2022/01/23 08:09:38;;;;;;;8.02;4.60;;;-3.60;99.90;;;;;;4977354;28;20543;-87
2022/01/23 08:12:09;;;;;;;6.47;3.77;;;-3.60;99.90;;;;;;5007755;28;20914;-88
2022/01/23 08:14:37;;;;;;;7.40;4.10;;;-3.70;99.90;;;;;;4975304;28;20484;-88
2022/01/23 08:17:05;;;;;;;8.13;4.30;;;-3.70;99.90;;;;;;4994316;28;20758;-87
2022/01/23 08:19:32;;;;;;;8.38;4.65;;;-3.70;99.90;;;;;;5027357;28;20400;-88
2022/01/23 08:22:00;;;;;;;7.35;4.10;;;-3.60;99.90;;;;;;5027282;28;20692;-88
2022/01/23 08:24:28;;;;;;;9.20;4.93;;;-3.60;99.90;;;;;;5010960;28;20888;-89
2022/01/23 08:26:55;;;;;;;9.38;5.25;;;-3.70;99.90;;;;;;5026491;28;20431;-86
2022/01/23 08:29:23;;;;;;;11.15;5.57;;;-3.60;99.90;;;;;;5043489;28;20494;-87
2022/01/23 08:31:51;;;;;;;7.32;3.90;;;-3.60;99.90;;;;;;4995879;28;20404;-88
2022/01/23 08:34:19;;;;;;;5.82;3.38;;;-3.60;99.90;;;;;;5010386;28;20445;-87
2022/01/23 08:36:50;;;;;;;8.07;4.25;;;-3.80;99.90;;;;;;4991596;28;20399;-90
2022/01/23 08:39:22;;;;;;;8.55;4.60;;;-3.80;99.90;;;;;;4990623;28;20837;-88
2022/01/23 08:41:49;;;;;;;7.80;4.30;;;-3.80;99.90;;;;;;4990920;28;20887;-90
2022/01/23 08:44:25;;;;;;;6.93;3.78;;;-3.70;99.90;;;;;;5007137;28;20883;-89
2022/01/23 08:46:54;;;;;;;7.38;3.65;;;-3.80;99.90;;;;;;4975094;28;20432;-89
2022/01/23 08:49:23;;;;;;;7.65;4.07;;;-4.00;99.90;;;;;;5007059;28;20397;-88
2022/01/23 08:51:53;;;;;;;6.85;3.70;;;-4.10;99.90;;;;;;4990682;28;20899;-88
2022/01/23 08:54:22;;;;;;;6.72;3.67;;;-4.20;99.90;;;;;;4990756;28;20396;-90
2022/01/23 08:56:50;;;;;;;8.95;4.40;;;-4.20;99.90;;;;;;5025306;28;20882;-89
2022/01/23 08:59:18;;;;;;;8.27;4.63;;;-4.10;99.90;;;;;;5043018;28;20836;-88
2022/01/23 09:01:48;;;;;;;6.25;3.53;;;-3.90;99.90;;;;;;5016729;28;20411;-87
2022/01/23 09:04:23;;;;;;;9.57;4.40;;;-4.00;99.90;;;;;;5010014;28;20875;-89
2022/01/23 09:06:50;;;;;;;7.03;3.50;;;-4.10;99.90;;;;;;5009881;28;20406;-88
2022/01/23 09:09:19;;;;;;;7.05;3.97;;;-4.20;99.90;;;;;;5010109;28;20402;-89
2022/01/23 09:14:22;;;;;;;9.90;5.38;;;-4.00;99.90;;;;;;5006619;28;20409;-89
2022/01/23 09:16:51;;;;;;;8.90;4.80;;;-3.80;99.90;;;;;;5010112;28;20905;-88
2022/01/23 09:19:21;;;;;;;12.07;5.57;;;-3.80;99.90;;;;;;5026335;28;20456;-90
2022/01/23 09:21:49;;;;;;;11.27;5.60;;;-3.70;99.90;;;;;;5009703;28;20387;-89
2022/01/23 09:24:19;;;;;;;11.97;6.00;;;-3.60;99.90;;;;;;5009623;28;20414;-88
2022/01/23 09:27:01;;;;;;;11.93;5.72;;;-3.60;99.90;;;;;;4990438;28;20408;-89
2022/01/23 09:29:33;;;;;;;8.63;4.70;;;-3.50;99.90;;;;;;4993561;28;20411;-89
2022/01/23 09:32:08;;;;;;;12.20;6.40;;;-3.70;99.90;;;;;;5009234;28;20404;-88
2022/01/23 09:34:36;;;;;;;13.13;7.43;;;-4.10;99.90;;;;;;5009594;28;20494;-89
2022/01/23 09:37:07;;;;;;;14.30;7.60;;;-4.10;99.90;;;;;;4992093;28;20635;-89
2022/01/23 09:39:36;;;;;;;11.80;6.78;;;-3.80;99.90;;;;;;5026021;28;20384;-88
2022/01/23 09:42:06;;;;;;;13.85;7.57;;;-3.80;99.90;;;;;;5026047;28;20395;-89
2022/01/23 09:44:56;;;;;;;16.40;9.57;;;-3.80;99.90;;;;;;4993553;28;20881;-89
2022/01/23 09:47:25;;;;;;;16.33;9.65;;;-3.60;99.90;;;;;;5009373;28;20664;-89
2022/01/23 09:49:54;;;;;;;17.00;10.57;;;-3.50;99.90;;;;;;5031138;28;20823;-89
2022/01/23 09:52:29;;;;;;;17.55;10.00;;;-3.50;99.90;;;;;;5006838;28;20412;-88
2022/01/23 09:55:01;;;;;;;17.02;10.10;;;-3.40;99.90;;;;;;5006277;28;20814;-88
2022/01/23 09:57:31;;;;;;;13.40;7.60;;;-3.50;99.90;;;;;;5006321;28;20486;-90
2022/01/23 10:00:00;;;;;;;11.27;5.93;;;-3.60;99.90;;;;;;5005778;28;20413;-89
2022/01/23 10:02:28;;;;;;;10.23;6.15;;;-3.90;99.90;;;;;;4989585;28;20397;-89
2022/01/23 10:05:04;;;;;;;10.93;6.80;;;-3.90;99.90;;;;;;4989704;28;20415;-89
2022/01/23 10:07:37;;;;;;;8.52;5.05;;;-3.80;99.90;;;;;;5005651;28;20496;-88
2022/01/23 10:10:13;;;;;;;11.15;6.32;;;-3.80;99.90;;;;;;4973344;28;20440;-90
2022/01/23 10:12:43;;;;;;;8.50;4.57;;;-3.80;99.90;;;;;;5011673;28;20503;-90
2022/01/23 10:15:11;;;;;;;7.97;4.70;;;-3.90;99.90;;;;;;5122258;27;20415;-89
2022/01/23 10:17:40;;;;;;;7.30;3.83;;;-3.90;99.90;;;;;;5112241;28;20378;-88
2022/01/23 10:20:10;;;;;;;6.75;3.42;;;-3.90;99.90;;;;;;5111808;28;20795;-89
2022/01/23 10:22:42;;;;;;;8.88;4.78;;;-3.90;99.90;;;;;;5112320;28;20398;-89
2022/01/23 10:25:25;;;;;;;7.80;4.30;;;-4.10;99.90;;;;;;5005742;28;20412;-89
2022/01/23 10:28:09;;;;;;;5.87;3.23;;;-4.00;99.90;;;;;;4993374;28;20400;-89
2022/01/23 10:30:42;;;;;;;5.80;3.58;;;-4.10;99.90;;;;;;5024878;28;20412;-89
2022/01/23 10:33:19;;;;;;;6.72;3.67;;;-4.10;99.90;;;;;;5024758;28;20395;-90
2022/01/23 10:36:08;;;;;;;7.03;3.88;;;-4.00;99.90;;;;;;5024849;28;20406;-89
2022/01/23 10:38:56;;;;;;;7.32;3.72;;;-4.00;99.90;;;;;;4992471;28;20396;-88
2022/01/23 10:41:48;;;;;;;7.47;4.20;;;-4.00;99.90;;;;;;4985790;28;20416;-91
2022/01/23 10:50:00;;;;;;;8.65;4.88;;;-3.60;99.90;;;;;;4992533;28;20439;-90
2022/01/23 10:52:34;;;;;;;6.88;3.80;;;-3.50;99.90;;;;;;4994950;28;20415;-91
2022/01/23 10:55:04;;;;;;;7.00;3.83;;;-3.60;99.90;;;;;;5008331;28;20486;-89
2022/01/23 10:57:37;;;;;;;8.00;4.13;;;-3.60;99.90;;;;;;5022431;28;20416;-89
2022/01/23 11:00:08;;;;;;;16.58;8.30;;;-3.50;99.90;;;;;;5000811;28;20416;-89
2022/01/23 11:02:43;;;;;;;6.38;3.58;;;-3.50;99.90;;;;;;5023443;28;20407;-88
2022/01/23 11:05:19;;;;;;;6.30;3.90;;;-3.70;99.90;;;;;;5019502;28;20811;-88
2022/01/23 11:07:50;;;;;;;5.88;3.50;;;-3.70;99.90;;;;;;4950495;28;20796;-87
2022/01/23 11:10:20;;;;;;;6.47;3.92;;;-3.80;99.90;;;;;;4985610;28;20472;-88
2022/01/23 11:18:13;;;;;;;6.67;4.23;;;-3.90;99.90;;;;;;4965089;28;20806;-88
2022/01/23 11:20:45;;;;;;;8.65;4.38;;;-3.80;99.90;;;;;;4965930;28;20932;-88
2022/01/23 11:23:18;;;;;;;8.00;4.60;;;-3.70;99.90;;;;;;4977451;28;20440;-87
2022/01/23 11:26:10;;;;;;;8.67;4.87;;;-3.60;99.90;;;;;;4989029;28;20427;-87
2022/01/23 11:28:44;;;;;;;7.97;4.45;;;-3.60;99.90;;;;;;4955947;28;20497;-87
2022/01/23 11:31:19;;;;;;;10.40;5.30;;;-3.60;99.90;;;;;;4968598;28;20403;-88
2022/01/23 11:33:49;;;;;;;7.85;4.20;;;-3.60;99.90;;;;;;4952766;28;20425;-88
2022/01/23 11:36:20;;;;;;;7.45;4.03;;;-3.60;99.90;;;;;;4953386;28;20863;-88
2022/01/23 11:38:50;;;;;;;8.30;4.60;;;-3.50;99.90;;;;;;4965818;28;20408;-88
2022/01/23 11:55:33;;;;;;;7.22;4.00;;;-3.70;99.90;;;;;;4968172;28;20442;-90
2022/01/23 11:58:04;;;;;;;7.25;4.03;;;-3.90;99.90;;;;;;4958099;28;20507;-89
2022/01/23 12:00:35;;;;;;;8.68;4.38;;;-3.80;99.90;;;;;;4962112;28;20471;-89
2022/01/23 12:03:15;;;;;;;7.78;4.45;;;-3.80;99.90;;;;;;4979203;28;20499;-86
2022/01/23 12:05:45;;;;;;;7.63;4.35;;;-3.70;99.90;;;;;;4960599;28;20796;-88
2022/01/23 12:08:36;;;;;;;7.22;4.20;;;-3.70;99.90;;;;;;5009608;28;20417;-89
2022/01/23 12:11:23;;;;;;;9.38;5.50;;;-3.70;99.90;;;;;;4998411;28;20425;-88
2022/01/23 12:17:05;;;;;;;8.43;4.95;;;-3.60;99.90;;;;;;5043938;28;20442;-88
2022/01/23 12:19:47;;;;;;;9.68;5.22;;;-3.50;99.90;;;;;;5006777;28;20440;-89
2022/01/23 12:22:37;;;;;;;7.90;4.50;;;-3.50;99.90;;;;;;5000960;28;21002;-89
2022/01/23 12:25:20;;;;;;;8.65;4.78;;;-3.40;99.90;;;;;;5042803;28;20406;-90
2022/01/23 12:28:20;;;;;;;7.65;4.38;;;-3.50;99.90;;;;;;5042173;28;20912;-88
2022/01/23 12:30:53;;;;;;;8.77;4.53;;;-3.60;99.90;;;;;;5005262;28;20399;-88
2022/01/23 12:33:43;;;;;;;6.60;3.75;;;-3.60;99.90;;;;;;5011680;28;20411;-89
2022/01/23 12:36:14;;;;;;;7.38;4.05;;;-3.70;99.90;;;;;;4994613;28;20398;-89
2022/01/23 12:38:48;;;;;;;7.35;4.15;;;-3.70;99.90;;;;;;5027031;28;20449;-88
2022/01/23 12:41:30;;;;;;;7.90;4.60;;;-3.70;99.90;;;;;;5043067;28;20388;-86
2022/01/23 12:44:05;;;;;;;7.78;4.00;;;-3.70;99.90;;;;;;5024340;28;20881;-88
2022/01/23 12:46:41;;;;;;;9.38;3.80;;;-3.60;99.90;;;;;;4991429;28;20450;-87
2022/01/23 12:49:38;;;;;;;8.07;4.30;;;-3.70;99.90;;;;;;5018355;28;20396;-88
2022/01/23 12:52:06;;;;;;;7.43;4.15;;;-3.80;99.90;;;;;;4990255;28;20466;-90
2022/01/23 12:54:52;;;;;;;9.45;4.55;;;-3.80;99.90;;;;;;5009015;28;20893;-88
2022/01/23 12:57:41;;;;;;;8.23;4.07;;;-3.90;99.90;;;;;;5011139;28;20384;-88
2022/01/23 13:00:21;;;;;;;8.82;4.90;;;-3.90;99.90;;;;;;5017045;28;20438;-89
2022/01/23 13:02:51;;;;;;;10.20;5.20;;;-3.80;99.90;;;;;;5016313;28;20448;-87
2022/01/23 13:05:20;;;;;;;9.60;5.03;;;-3.70;99.90;;;;;;5038121;28;20411;-87
2022/01/23 13:13:35;;;;;;;8.63;4.30;;;-3.70;99.90;;;;;;5020912;28;20449;-86
2022/01/23 13:19:20;;;;;;;9.90;5.27;;;-3.70;99.90;;;;;;5037910;28;20963;-87
2022/01/23 13:30:20;;;;;;;9.75;5.38;;;-3.70;99.90;;;;;;5041303;28;20415;-88
2022/01/23 13:32:50;;;;;;;8.48;4.80;;;-3.90;99.90;;;;;;5025823;28;20455;-89
2022/01/23 13:35:19;;;;;;;9.43;5.00;;;-3.90;99.90;;;;;;5009496;28;20423;-88
2022/01/23 13:37:57;;;;;;;9.00;5.10;;;-3.90;99.90;;;;;;4993651;28;20402;-87
2022/01/23 13:40:38;;;;;;;9.43;5.13;;;-4.00;99.90;;;;;;5025924;28;20411;-89
2022/01/23 13:51:43;;;;;;;9.20;5.00;;;-4.00;99.90;;;;;;5042448;28;20472;-89
2022/01/23 13:59:58;;;;;;;9.48;5.03;;;-4.10;99.90;;;;;;5022194;28;20409;-87
2022/01/23 14:02:32;;;;;;;9.88;5.35;;;-4.00;99.90;;;;;;5007504;28;20415;-89
2022/01/23 14:05:17;;;;;;;10.37;5.10;;;-4.00;99.90;;;;;;5035141;28;20463;-87
2022/01/23 14:08:05;;;;;;;9.23;4.63;;;-4.10;99.90;;;;;;5030339;28;20472;-87
2022/01/23 14:10:42;;;;;;;8.85;4.75;;;-4.10;99.90;;;;;;5012653;28;20428;-87
2022/01/23 14:13:19;;;;;;;8.48;4.72;;;-4.00;99.90;;;;;;5031552;28;20411;-86
2022/01/23 14:15:50;;;;;;;10.40;4.78;;;-4.00;99.90;;;;;;5014839;28;20414;-87
2022/01/23 14:18:22;;;;;;;9.93;5.50;;;-4.10;99.90;;;;;;5019269;28;20403;-87
2022/01/23 14:21:05;;;;;;;9.47;4.87;;;-4.00;99.90;;;;;;5032887;28;20422;-88
2022/01/23 14:23:36;;;;;;;8.98;5.47;;;-4.00;99.90;;;;;;5013456;28;20401;-87
2022/01/23 14:26:08;;;;;;;10.52;5.93;;;-4.10;99.90;;;;;;5021628;28;20823;-87
2022/01/23 14:28:41;;;;;;;11.68;6.43;;;-4.10;99.90;;;;;;5016319;28;20407;-87
2022/01/23 14:31:19;;;;;;;11.98;6.32;;;-4.10;99.90;;;;;;5008491;28;20492;-87
2022/01/23 14:33:51;;;;;;;12.90;6.70;;;-4.10;99.90;;;;;;5027117;28;20412;-87
2022/01/23 14:36:31;;;;;;;14.30;7.87;;;-4.10;99.90;;;;;;5025937;28;20414;-86
2022/01/23 14:39:11;;;;;;;15.02;7.45;;;-4.00;99.90;;;;;;5012013;28;20414;-88
2022/01/23 14:41:42;;;;;;;14.20;7.43;;;-4.10;99.90;;;;;;5033462;28;20444;-87
2022/01/23 14:44:23;;;;;;;13.50;7.47;;;-4.10;99.90;;;;;;5026326;28;20463;-87
2022/01/23 14:46:55;;;;;;;16.90;9.20;;;-4.10;99.90;;;;;;5012916;28;20411;-87
2022/01/23 14:49:27;;;;;;;16.73;8.25;;;-4.00;99.90;;;;;;5030586;28;20837;-87
2022/01/23 14:52:01;;;;;;;15.32;8.02;;;-3.90;99.90;;;;;;5037201;28;20411;-87
2022/01/23 14:54:32;;;;;;;15.00;7.93;;;-4.00;99.90;;;;;;5018378;28;20443;-88
2022/01/23 14:57:02;;;;;;;16.40;8.77;;;-4.00;99.90;;;;;;5032248;28;20407;-88
2022/01/23 14:59:31;;;;;;;15.43;8.43;;;-4.00;99.90;;;;;;5018609;28;20502;-88
2022/01/23 15:02:00;;;;;;;13.70;7.32;;;-3.90;99.90;;;;;;5006801;28;20478;-86
2022/01/23 15:04:28;;;;;;;13.50;6.93;;;-4.00;99.90;;;;;;5015381;28;20454;-87
2022/01/23 15:06:56;;;;;;;12.83;7.30;;;-4.00;99.90;;;;;;5014057;28;20409;-88
2022/01/23 15:09:24;;;;;;;12.35;6.68;;;-4.00;99.90;;;;;;5004329;28;20414;-88
2022/01/23 15:11:52;;;;;;;14.50;7.70;;;-4.10;99.90;;;;;;5013902;28;20403;-87
2022/01/23 15:14:20;;;;;;;13.38;7.20;;;-4.10;99.90;;;;;;4991923;28;20399;-87
2022/01/23 15:16:50;;;;;;;11.55;6.32;;;-4.10;99.90;;;;;;5053901;28;20428;-86
2022/01/23 15:19:24;;;;;;;12.98;6.97;;;-4.00;99.90;;;;;;5013352;28;20444;-86
2022/01/23 15:21:52;;;;;;;12.20;6.32;;;-4.10;99.90;;;;;;5013002;28;20799;-87
2022/01/23 15:24:20;;;;;;;12.15;6.28;;;-4.10;99.90;;;;;;4994169;28;20494;-87
2022/01/23 15:26:47;;;;;;;10.77;5.75;;;-4.10;99.90;;;;;;5014433;28;20490;-86
2022/01/23 15:29:15;;;;;;;12.52;6.90;;;-4.10;99.90;;;;;;5016294;28;20490;-86
2022/01/23 15:31:43;;;;;;;12.80;7.07;;;-4.10;99.90;;;;;;5013254;28;20410;-85
2022/01/23 15:34:11;;;;;;;11.57;6.30;;;-3.90;99.90;;;;;;5018259;28;20497;-87
2022/01/23 15:36:41;;;;;;;10.23;6.05;;;-4.00;99.90;;;;;;5032175;28;20455;-86
2022/01/23 15:39:09;;;;;;;11.00;5.68;;;-4.10;99.90;;;;;;5043846;28;20414;-86
2022/01/23 15:41:38;;;;;;;11.63;5.90;;;-4.10;99.90;;;;;;5020610;28;20460;-85
2022/01/23 15:44:06;;;;;;;10.52;6.07;;;-4.00;99.90;;;;;;5046371;27;20410;-84
2022/01/23 15:46:35;;;;;;;10.80;5.65;;;-4.00;99.90;;;;;;5016797;28;20418;-84
2022/01/23 15:49:05;;;;;;;10.43;5.68;;;-4.00;99.90;;;;;;5058192;27;20489;-85
2022/01/23 15:51:36;;;;;;;13.43;6.55;;;-4.00;99.90;;;;;;5021400;28;20409;-88
2022/01/23 15:54:05;;;;;;;11.07;6.43;;;-4.00;99.90;;;;;;5033925;28;20850;-87
2022/01/23 15:56:33;;;;;;;11.88;6.38;;;-4.10;99.90;;;;;;5001438;28;20404;-87
2022/01/23 15:59:02;;;;;;;12.82;6.57;;;-4.00;99.90;;;;;;5004704;28;20408;-87
2022/01/23 16:01:29;;;;;;;15.37;7.70;;;-4.00;99.90;;;;;;5018458;28;20415;-87
2022/01/23 16:04:00;;;;;;;14.82;7.43;;;-4.00;99.90;;;;;;5052527;28;20522;-87
2022/01/23 16:06:33;;;;;;;14.50;7.60;;;-4.00;99.90;;;;;;5035197;28;20897;-87
2022/01/23 16:09:01;;;;;;;12.77;6.60;;;-3.90;99.90;;;;;;5054732;28;20496;-87
2022/01/23 16:11:30;;;;;;;13.73;6.90;;;-4.00;99.90;;;;;;5018933;28;20409;-87
2022/01/23 16:13:58;;;;;;;11.15;6.00;;;-4.00;99.90;;;;;;5054620;27;20413;-86
2022/01/23 16:16:26;;;;;;;13.20;6.75;;;-4.00;99.90;;;;;;5004271;28;20407;-86
2022/01/23 16:18:56;;;;;;;12.38;6.07;;;-4.00;99.90;;;;;;5018690;28;20409;-87
2022/01/23 16:21:26;;;;;;;13.32;6.38;;;-4.10;99.90;;;;;;5025718;28;20409;-87
2022/01/23 16:23:59;;;;;;;12.40;6.28;;;-4.10;99.90;;;;;;5033451;28;20413;-86
2022/01/23 16:26:34;;;;;;;13.50;6.65;;;-4.10;99.90;;;;;;5017258;28;20414;-87
2022/01/23 16:29:02;;;;;;;13.03;6.57;;;-4.20;99.90;;;;;;5029951;28;20841;-87